Time;durP1;ratioP1;P1;durP2;ratioP2;P2;SDS_P1;SDS_P2;PMS_P1;PMS_P2;Temp;Humidity;BMP_temperature;BMP_pressure;BME280_temperature;BME280_humidity;BME280_pressure;Samples;Min_cycle;Max_cycle;Signal;HPM_P1;HPM_P2
2022/10/27 00:05:14;;;;;;;1.80;0.90;;;;;;;;;;20774232;28;20249;-68
2022/10/27 00:15:18;;;;;;;2.50;0.80;;;;;;;;;;20785944;28;20252;-68
2022/10/27 00:25:20;;;;;;;1.20;0.70;;;;;;;;;;20802502;28;20789;-68
2022/10/27 00:35:22;;;;;;;2.27;1.00;;;;;;;;;;20786945;28;20198;-68
2022/10/27 00:45:24;;;;;;;2.80;0.80;;;;;;;;;;20786592;28;20771;-68
2022/10/27 00:55:25;;;;;;;1.53;0.80;;;;;;;;;;20786156;28;20210;-68
2022/10/27 01:05:28;;;;;;;1.17;0.80;;;14.30;99.90;;;;;;20785866;28;20859;-68
2022/10/27 01:15:36;;;;;;;5.40;0.77;;;;;;;;;;20785403;28;20199;-68
2022/10/27 01:25:47;;;;;;;0.53;0.53;;;;;;;;;;20795658;28;20218;-68
2022/10/27 01:36:02;;;;;;;0.90;0.60;;;13.90;99.90;;;;;;20799029;28;20221;-68
2022/10/27 01:46:07;;;;;;;1.20;0.80;;;13.90;99.90;;;;;;20809949;28;20244;-68
2022/10/27 01:56:21;;;;;;;0.80;0.50;;;;;;;;;;20765742;28;20690;-68
2022/10/27 02:06:44;;;;;;;1.00;0.50;;;13.70;99.90;;;;;;20797044;28;20299;-68
2022/10/27 02:16:54;;;;;;;0.90;0.70;;;;;;;;;;20790590;28;20352;-69
2022/10/27 02:26:58;;;;;;;0.73;0.40;;;;;;;;;;20777886;28;20227;-68
2022/10/27 02:37:00;;;;;;;1.17;0.60;;;;;;;;;;20793256;28;20272;-68
2022/10/27 02:47:02;;;;;;;0.80;0.60;;;;;;;;;;20789832;28;20214;-68
2022/10/27 02:57:03;;;;;;;2.00;0.80;;;;;;;;;;20792953;28;20218;-68
2022/10/27 03:07:06;;;;;;;1.10;0.70;;;;;;;;;;20792366;28;20285;-68
2022/10/27 03:17:08;;;;;;;1.00;0.67;;;;;;;;;;20807855;28;20280;-68
2022/10/27 03:27:10;;;;;;;2.40;0.90;;;;;;;;;;20790792;28;20273;-68
2022/10/27 03:37:12;;;;;;;1.03;0.80;;;;;;;;;;20814868;23;20273;-68
2022/10/27 03:47:14;;;;;;;1.47;0.80;;;;;;;;;;20777685;28;20238;-68
2022/10/27 03:57:16;;;;;;;2.60;0.87;;;;;;;;;;20780383;28;20221;-67
2022/10/27 04:07:19;;;;;;;4.23;0.90;;;;;;;;;;20786451;28;20239;-67
2022/10/27 04:17:20;;;;;;;1.43;0.90;;;;;;;;;;20770462;28;20214;-67
2022/10/27 04:27:22;;;;;;;1.40;0.67;;;;;;;;;;20760202;28;20230;-67
2022/10/27 04:37:25;;;;;;;0.93;0.53;;;;;;;;;;20768562;28;20304;-67
2022/10/27 04:47:27;;;;;;;1.63;0.70;;;;;;;;;;20755427;28;20417;-67
2022/10/27 04:57:29;;;;;;;2.97;0.93;;;;;;;;;;20769621;28;20249;-67
2022/10/27 05:07:31;;;;;;;2.20;0.80;;;;;;;;;;20785483;28;20219;-66
2022/10/27 05:17:35;;;;;;;2.27;0.90;;;12.50;99.90;;;;;;20800290;28;20271;-67
2022/10/27 05:27:37;;;;;;;3.13;1.00;;;;;;;;;;20799678;28;20735;-67
2022/10/27 05:37:43;;;;;;;1.93;1.40;;;;;;;;;;20777289;28;20577;-67
2022/10/27 05:47:44;;;;;;;3.00;2.00;;;;;;;;;;20789175;28;20673;-67
2022/10/27 05:57:54;;;;;;;4.10;2.77;;;12.40;99.90;;;;;;20793770;28;20222;-67
2022/10/27 06:07:57;;;;;;;4.53;2.50;;;12.00;99.90;;;;;;20750857;28;20218;-67
2022/10/27 06:17:59;;;;;;;4.90;1.97;;;;;;;;;;20796574;28;20234;-67
2022/10/27 06:28:02;;;;;;;2.30;1.40;;;;;;;;;;20807398;28;20219;-67
2022/10/27 06:38:03;;;;;;;1.97;0.90;;;;;;;;;;20769354;28;20226;-67
2022/10/27 06:48:07;;;;;;;2.33;1.40;;;;;;;;;;20793477;28;20206;-67
2022/10/27 06:58:09;;;;;;;3.57;1.20;;;;;;;;;;20786815;28;20226;-67
2022/10/27 07:08:11;;;;;;;2.67;0.90;;;;;;;;;;20765004;28;20222;-67
2022/10/27 07:18:14;;;;;;;2.17;1.30;;;;;;;;;;20788345;28;20223;-67
2022/10/27 07:28:16;;;;;;;6.03;1.60;;;;;;;;;;20759880;28;20699;-67
2022/10/27 07:38:18;;;;;;;3.07;1.40;;;;;;;;;;20756880;28;20284;-68
2022/10/27 07:48:20;;;;;;;4.87;1.40;;;;;;;;;;20763964;28;20370;-71
2022/10/27 07:58:24;;;;;;;4.57;1.30;;;13.40;99.90;;;;;;20755490;28;21785;-68
2022/10/27 08:08:30;;;;;;;4.33;1.63;;;;;;;;;;20772008;28;20272;-71
2022/10/27 08:18:36;;;;;;;3.90;1.47;;;;;;;;;;20814601;28;20230;-69
2022/10/27 08:28:38;;;;;;;2.67;1.50;;;;;;;;;;20789887;28;20273;-69
2022/10/27 08:38:40;;;;;;;1.90;1.33;;;;;;;;;;20786512;28;20275;-69
2022/10/27 08:48:42;;;;;;;5.67;1.57;;;;;;;;;;20803125;28;20285;-69
2022/10/27 08:58:47;;;;;;;3.23;1.60;;;14.90;99.90;;;;;;20784018;28;20352;-69
2022/10/27 09:08:48;;;;;;;2.53;1.33;;;;;;;;;;20775086;28;20206;-68
2022/10/27 09:18:54;;;;;;;2.77;1.67;;;15.20;99.90;;;;;;20810521;28;20292;-68
2022/10/27 09:28:57;;;;;;;3.57;1.57;;;;;;;;;;20762793;28;20264;-68
2022/10/27 09:38:59;;;;;;;3.50;1.03;;;;;;;;;;20778568;28;20222;-69
2022/10/27 09:49:04;;;;;;;3.00;1.77;;;15.90;99.90;;;;;;20956160;23;20236;-84
2022/10/27 09:59:06;;;;;;;2.00;1.33;;;;;;;;;;20982037;28;20224;-83
2022/10/27 10:09:26;;;;;;;2.60;1.43;;;;;;;;;;20979727;28;20682;-84
2022/10/27 10:19:28;;;;;;;6.17;1.30;;;;;;;;;;20960970;28;20221;-83
2022/10/27 10:29:30;;;;;;;2.77;1.30;;;;;;;;;;20956325;28;20767;-83
2022/10/27 10:39:35;;;;;;;3.97;1.40;;;16.80;99.90;;;;;;20963398;28;20709;-81
2022/10/27 10:49:41;;;;;;;2.87;1.50;;;;;;;;;;21051090;28;20633;-83
2022/10/27 10:59:44;;;;;;;2.37;1.40;;;17.10;99.90;;;;;;20954058;28;20221;-84
2022/10/27 11:09:54;;;;;;;2.67;1.17;;;;;;;;;;20971688;28;20229;-81
2022/10/27 11:19:56;;;;;;;4.10;1.23;;;;;;;;;;21033427;28;20216;-82
2022/10/27 11:30:16;;;;;;;4.43;1.40;;;;;;;;;;21058404;28;20277;-80
2022/10/27 11:41:02;;;;;;;4.03;1.10;;;17.90;99.90;;;;;;21042057;28;20212;-82
2022/10/27 11:51:14;;;;;;;3.47;1.40;;;18.10;99.90;;;;;;20890422;28;20690;-82
2022/10/27 12:01:30;;;;;;;2.87;1.13;;;;;;;;;;20841914;28;20240;-82
2022/10/27 12:12:17;;;;;;;2.37;1.00;;;18.60;99.90;;;;;;20907584;28;20211;-82
2022/10/27 12:22:19;;;;;;;3.60;1.00;;;;;;;;;;20811666;28;20290;-82
2022/10/27 12:32:24;;;;;;;3.47;0.90;;;;;;;;;;21025361;28;20267;-83
2022/10/27 12:42:57;;;;;;;3.30;0.83;;;;;;;;;;20955045;28;20662;-82
2022/10/27 12:53:15;;;;;;;3.27;1.27;;;;;;;;;;20929821;28;20257;-82
2022/10/27 13:03:20;;;;;;;3.37;1.63;;;;;;;;;;20920069;28;21089;-81
2022/10/27 13:13:25;;;;;;;3.43;1.00;;;;;;;;;;20938360;28;20213;-81
2022/10/27 13:23:33;;;;;;;2.73;0.87;;;;;;;;;;21066109;28;20767;-82
2022/10/27 13:33:36;;;;;;;1.80;0.80;;;;;;;;;;21038492;28;20219;-82
2022/10/27 13:43:42;;;;;;;3.60;0.83;;;;;;;;;;20976159;28;20225;-81
2022/10/27 13:53:44;;;;;;;1.43;0.87;;;;;;;;;;21008593;28;20200;-83
2022/10/27 14:04:04;;;;;;;2.83;1.03;;;;;;;;;;20941928;28;20304;-83
2022/10/27 14:14:08;;;;;;;1.50;1.17;;;;;;;;;;20980622;28;20217;-83
2022/10/27 14:24:14;;;;;;;1.60;0.90;;;;;;;;;;20918415;28;20234;-83
2022/10/27 14:34:33;;;;;;;2.23;1.03;;;;;;;;;;20939855;28;20768;-83
2022/10/27 14:44:43;;;;;;;2.27;1.00;;;;;;;;;;20879225;28;20910;-83
2022/10/27 14:54:52;;;;;;;2.80;0.90;;;;;;;;;;20894382;28;20633;-82
2022/10/27 15:05:23;;;;;;;3.80;1.00;;;;;;;;;;20899129;28;20228;-84
2022/10/27 15:15:32;;;;;;;2.20;1.17;;;;;;;;;;20902659;28;20673;-83
2022/10/27 15:25:50;;;;;;;1.10;0.80;;;;;;;;;;20997367;28;20233;-83
2022/10/27 15:35:52;;;;;;;2.23;1.03;;;;;;;;;;20992117;28;20251;-82
2022/10/27 15:46:12;;;;;;;4.27;0.97;;;;;;;;;;20903136;28;20272;-83
2022/10/27 15:56:23;;;;;;;2.10;0.93;;;;;;;;;;20941794;28;20615;-83
2022/10/27 16:06:28;;;;;;;2.30;1.10;;;17.70;99.90;;;;;;21019995;28;20608;-83
2022/10/27 16:16:34;;;;;;;2.57;1.13;;;;;;;;;;21038362;28;20239;-83
2022/10/27 16:26:36;;;;;;;10.30;1.60;;;;;;;;;;21041481;28;20236;-83
2022/10/27 16:36:38;;;;;;;3.17;1.17;;;;;;;;;;20947658;28;20225;-84
2022/10/27 16:46:40;;;;;;;2.60;1.27;;;;;;;;;;20927724;28;20245;-84
2022/10/27 16:56:45;;;;;;;2.07;1.57;;;;;;;;;;20897898;28;20248;-82
2022/10/27 17:06:47;;;;;;;6.17;1.23;;;17.20;99.90;;;;;;20903451;28;20272;-83
2022/10/27 17:16:49;;;;;;;2.57;1.23;;;;;;;;;;20870103;28;20217;-83
2022/10/27 17:26:51;;;;;;;5.73;1.50;;;;;;;;;;20893604;28;20284;-83
2022/10/27 17:36:56;;;;;;;5.07;2.00;;;;;;;;;;20907765;28;20256;-84
2022/10/27 17:46:57;;;;;;;1.33;0.93;;;;;;;;;;20866461;28;20230;-84
2022/10/27 17:56:59;;;;;;;1.73;0.90;;;;;;;;;;20884962;28;20225;-83
2022/10/27 18:07:01;;;;;;;1.87;1.03;;;;;;;;;;20900432;28;20291;-83
2022/10/27 18:17:05;;;;;;;1.43;0.90;;;;;;;;;;20934293;28;20217;-82
2022/10/27 18:27:08;;;;;;;2.63;1.10;;;;;;;;;;20984769;28;20294;-82
2022/10/27 18:37:10;;;;;;;4.83;1.13;;;;;;;;;;21025282;28;20210;-80
2022/10/27 18:47:12;;;;;;;4.37;1.20;;;;;;;;;;20947827;28;20233;-83
2022/10/27 18:57:14;;;;;;;3.67;1.67;;;;;;;;;;21004209;28;20225;-82
2022/10/27 19:07:16;;;;;;;5.07;1.90;;;;;;;;;;21013968;28;20797;-83
2022/10/27 19:17:18;;;;;;;4.40;1.30;;;;;;;;;;21012969;28;20238;-83
2022/10/27 19:27:20;;;;;;;5.03;1.60;;;;;;;;;;21028341;28;20233;-83
2022/10/27 19:37:22;;;;;;;4.10;1.40;;;;;;;;;;21006558;28;20585;-82
2022/10/27 19:47:24;;;;;;;4.30;1.50;;;;;;;;;;20882367;28;20307;-81
2022/10/27 19:57:26;;;;;;;2.50;1.00;;;;;;;;;;20871002;28;20217;-83
2022/10/27 20:07:28;;;;;;;2.43;1.27;;;;;;;;;;20883590;28;20260;-83
2022/10/27 20:17:30;;;;;;;2.33;1.50;;;;;;;;;;20891272;28;20213;-82
2022/10/27 20:27:31;;;;;;;3.73;1.30;;;;;;;;;;21051482;28;20614;-82
2022/10/27 20:37:39;;;;;;;1.93;1.20;;;;;;;;;;21039564;28;20233;-81
2022/10/27 20:47:42;;;;;;;2.37;1.40;;;;;;;;;;21049535;28;20258;-82
2022/10/27 20:57:43;;;;;;;1.90;1.20;;;;;;;;;;21000643;28;20628;-82
2022/10/27 21:07:46;;;;;;;2.30;1.43;;;;;;;;;;21051302;28;20770;-82
2022/10/27 21:17:47;;;;;;;2.73;1.40;;;;;;;;;;21008172;28;21057;-81
2022/10/27 21:27:52;;;;;;;2.27;1.43;;;;;;;;;;20866325;28;20280;-83
2022/10/27 21:37:55;;;;;;;3.60;1.30;;;;;;;;;;20932316;28;20205;-83
2022/10/27 21:47:57;;;;;;;2.30;1.43;;;;;;;;;;20966648;28;20252;-83
2022/10/27 21:57:59;;;;;;;3.17;1.60;;;;;;;;;;20964148;28;20213;-85
2022/10/27 22:08:00;;;;;;;4.07;1.90;;;;;;;;;;20965213;28;20229;-82
2022/10/27 22:18:03;;;;;;;3.20;1.60;;;;;;;;;;20965308;28;20205;-82
2022/10/27 22:28:04;;;;;;;1.70;1.30;;;;;;;;;;20978181;28;20236;-82
2022/10/27 22:38:06;;;;;;;3.47;1.47;;;;;;;;;;21047036;28;20273;-81
2022/10/27 22:48:08;;;;;;;3.43;1.80;;;;;;;;;;21061501;28;20224;-84
2022/10/27 22:58:10;;;;;;;4.53;1.40;;;;;;;;;;21012691;28;20624;-84
2022/10/27 23:08:11;;;;;;;4.13;1.60;;;;;;;;;;20989346;28;20690;-82
2022/10/27 23:18:13;;;;;;;3.77;1.20;;;;;;;;;;20927713;28;20217;-83
2022/10/27 23:28:15;;;;;;;2.03;1.17;;;;;;;;;;20966087;28;20236;-83
2022/10/27 23:38:17;;;;;;;5.40;1.30;;;;;;;;;;21042132;28;20623;-86
2022/10/27 23:48:19;;;;;;;1.90;1.20;;;;;;;;;;21025388;28;20240;-85
2022/10/27 23:58:21;;;;;;;2.53;1.20;;;;;;;;;;21022491;28;20209;-83
